createdAt,value
2019-05-09T00:01:45.000Z,98856.38
2019-05-09T00:04:13.756Z,98858.45
2019-05-09T00:06:38.459Z,98856.47
2019-05-09T00:09:05.630Z,98868.15
2019-05-09T00:11:33.542Z,98867.05
2019-05-09T00:13:59.178Z,98867.41
2019-05-09T00:16:25.966Z,98858.50
2019-05-09T00:18:54.102Z,98863.75
2019-05-09T00:21:23.950Z,98857.62
2019-05-09T00:23:50.150Z,98861.06
2019-05-09T00:26:16.874Z,98855.83
2019-05-09T00:28:44.906Z,98846.28
2019-05-09T00:31:19.394Z,98853.86
2019-05-09T00:33:50.286Z,98849.30
2019-05-09T00:36:17.026Z,98851.22
2019-05-09T00:38:44.766Z,98853.64
2019-05-09T00:41:13.744Z,98854.39
2019-05-09T00:43:38.747Z,98845.98
2019-05-09T00:46:25.081Z,98843.69
2019-05-09T00:48:57.644Z,98841.14
2019-05-09T00:51:24.405Z,98840.97
2019-05-09T00:53:53.475Z,98836.85
2019-05-09T00:56:17.889Z,98843.02
2019-05-09T00:58:44.646Z,98840.43
2019-05-09T01:01:13.289Z,98836.88
2019-05-09T01:03:38.142Z,98833.16
2019-05-09T01:06:04.870Z,98843.29
2019-05-09T01:08:33.520Z,98844.67
2019-05-09T01:11:09.379Z,98840.14
2019-05-09T01:13:25.159Z,98837.37
2019-05-09T01:15:53.287Z,98843.02
2019-05-09T01:18:18.634Z,98834.43
2019-05-09T01:20:45.383Z,98829.81
2019-05-09T01:23:14.149Z,98834.12
2019-05-09T01:25:38.890Z,98830.34
2019-05-09T01:28:05.618Z,98827.61
2019-05-09T01:30:33.584Z,98835.58
2019-05-09T01:33:19.596Z,98836.31
2019-05-09T01:35:46.374Z,98827.09
2019-05-09T01:38:14.184Z,98834.88
2019-05-09T01:40:39.891Z,98829.84
2019-05-09T01:43:06.630Z,98832.12
2019-05-09T01:45:34.207Z,98832.98
2019-05-09T01:48:00.146Z,98833.63
2019-05-09T01:50:26.892Z,98822.02
2019-05-09T01:52:53.625Z,98832.60
2019-05-09T01:55:20.883Z,98835.55
2019-05-09T01:57:48.081Z,98835.20
2019-05-09T02:00:14.426Z,98835.48
2019-05-09T02:02:43.219Z,98842.09
2019-05-09T02:05:08.018Z,98836.42
2019-05-09T02:07:34.742Z,98843.30
2019-05-09T02:10:03.377Z,98846.39
2019-05-09T02:12:28.234Z,98845.64
2019-05-09T02:15:03.890Z,98836.25
2019-05-09T02:18:01.117Z,98836.56
2019-05-09T02:20:16.157Z,98834.55
2019-05-09T02:22:43.497Z,98842.49
2019-05-09T02:25:09.638Z,98842.87
2019-05-09T02:27:36.374Z,98840.53
2019-05-09T02:30:05.834Z,98838.67
2019-05-09T02:32:30.863Z,98847.92
2019-05-09T02:34:57.592Z,98830.66
2019-05-09T02:37:24.388Z,98833.52
2019-05-09T02:39:51.117Z,98831.06
2019-05-09T02:42:19.644Z,98834.32
2019-05-09T02:44:44.618Z,98827.41
2019-05-09T02:47:17.959Z,98826.30
2019-05-09T02:49:42.327Z,98834.25
2019-05-09T02:52:09.165Z,98835.41
2019-05-09T02:54:39.107Z,98831.31
2019-05-09T02:57:02.554Z,98833.08
2019-05-09T02:59:38.653Z,98831.16
2019-05-09T03:02:09.502Z,98830.15
2019-05-09T03:04:38.891Z,98827.23
2019-05-09T03:07:02.287Z,98832.67
2019-05-09T03:09:29.034Z,98835.62
2019-05-09T03:11:58.511Z,98828.91
2019-05-09T03:14:22.487Z,98831.94
2019-05-09T03:16:49.457Z,98830.33
2019-05-09T03:19:19.209Z,98834.63
2019-05-09T03:21:49.471Z,98834.36
2019-05-09T03:24:18.544Z,98833.30
2019-05-09T03:26:43.938Z,98833.48
2019-05-09T03:29:21.595Z,98824.39
2019-05-09T03:31:50.107Z,98821.59
2019-05-09T03:34:15.143Z,98815.12
2019-05-09T03:36:41.903Z,98812.39
2019-05-09T03:39:08.626Z,98807.78
2019-05-09T03:41:35.378Z,98812.13
2019-05-09T03:44:02.159Z,98803.39
2019-05-09T03:46:38.438Z,98801.47
2019-05-09T03:49:03.804Z,98794.70
2019-05-09T03:51:30.571Z,98786.56
2019-05-09T03:53:57.711Z,98779.88
2019-05-09T03:56:27.367Z,98786.11
2019-05-09T03:58:53.620Z,98778.12
2019-05-09T04:01:20.467Z,98779.21
2019-05-09T04:03:48.160Z,98783.70
2019-05-09T04:06:14.094Z,98777.53
2019-05-09T04:08:40.887Z,98779.05
2019-05-09T04:11:08.660Z,98778.92
2019-05-09T04:13:38.503Z,98782.48
2019-05-09T04:16:04.317Z,98781.33
2019-05-09T04:18:31.078Z,98786.50
2019-05-09T04:20:57.851Z,98786.55
2019-05-09T04:23:24.594Z,98787.19
2019-05-09T04:26:00.159Z,98777.33
2019-05-09T04:28:27.788Z,98778.08
2019-05-09T04:30:53.734Z,98780.56
2019-05-09T04:33:20.482Z,98778.88
2019-05-09T04:35:47.727Z,98783.77
2019-05-09T04:38:14.558Z,98775.73
2019-05-09T04:40:45.044Z,98775.83
2019-05-09T04:43:15.366Z,98772.62
2019-05-09T04:45:41.957Z,98767.64
2019-05-09T04:48:28.149Z,98764.59
2019-05-09T04:50:56.673Z,98761.69
2019-05-09T04:53:21.119Z,98758.98
2019-05-09T04:55:48.001Z,98750.83
2019-05-09T04:58:14.783Z,98746.26
2019-05-09T05:00:48.249Z,98755.31
2019-05-09T05:03:14.991Z,98756.69
2019-05-09T05:05:41.714Z,98755.12
2019-05-09T05:08:08.486Z,98762.09
2019-05-09T05:10:37.245Z,98763.56
2019-05-09T05:13:02.002Z,98761.99
2019-05-09T05:15:28.754Z,98755.39
2019-05-09T05:17:55.495Z,98749.41
2019-05-09T05:20:23.459Z,98751.25
2019-05-09T05:22:58.058Z,98752.52
2019-05-09T05:25:22.615Z,98757.97
2019-05-09T05:27:49.400Z,98754.39
2019-05-09T05:30:17.977Z,98753.05
2019-05-09T05:32:48.866Z,98754.73
2019-05-09T05:35:20.127Z,98756.84
2019-05-09T05:37:47.708Z,98761.59
2019-05-09T05:40:13.780Z,98767.77
2019-05-09T05:42:40.566Z,98774.31
2019-05-09T05:45:07.617Z,98768.98
2019-05-09T05:47:40.402Z,98771.27
2019-05-09T05:50:08.358Z,98773.33
2019-05-09T05:52:33.934Z,98768.08
2019-05-09T05:55:00.699Z,98760.27
2019-05-09T05:57:28.099Z,98764.08
2019-05-09T05:59:54.259Z,98764.95
2019-05-09T06:02:21.039Z,98760.73
2019-05-09T06:04:48.589Z,98766.77
2019-05-09T06:07:14.595Z,98761.69
2019-05-09T06:09:41.390Z,98756.77
2019-05-09T06:12:08.494Z,98762.52
2019-05-09T06:14:34.903Z,98764.88
2019-05-09T06:17:01.666Z,98754.70
2019-05-09T06:19:28.753Z,98759.27
2019-05-09T06:21:57.221Z,98759.89
2019-05-09T06:24:21.983Z,98766.27
2019-05-09T06:26:48.752Z,98754.89
2019-05-09T06:29:17.767Z,98758.67
2019-05-09T06:31:42.298Z,98753.66
2019-05-09T06:34:09.075Z,98748.98
2019-05-09T06:36:38.896Z,98748.88
2019-05-09T06:39:03.607Z,98754.66
2019-05-09T06:41:30.142Z,98762.94
2019-05-09T06:44:13.584Z,98761.70
2019-05-09T06:46:34.928Z,98767.41
2019-05-09T06:49:21.359Z,98760.97
2019-05-09T06:51:32.500Z,98764.42
2019-05-09T06:53:59.277Z,98760.36
2019-05-09T06:56:28.099Z,98754.59
2019-05-09T06:58:52.819Z,98746.42
2019-05-09T07:01:43.144Z,98732.75
2019-05-09T07:04:14.379Z,98738.13
2019-05-09T07:06:48.115Z,98729.23
2019-05-09T07:09:17.514Z,98737.05
2019-05-09T07:11:43.462Z,98733.84
2019-05-09T07:14:32.439Z,98730.01
2019-05-09T07:16:53.614Z,98733.84
2019-05-09T07:19:20.400Z,98736.70
2019-05-09T07:21:52.955Z,98740.35
2019-05-09T07:24:19.698Z,98743.53
2019-05-09T07:26:47.855Z,98732.27
2019-05-09T07:29:13.270Z,98741.42
2019-05-09T07:31:47.906Z,98741.16
2019-05-09T07:34:21.940Z,98739.80
2019-05-09T07:36:48.644Z,98746.16
2019-05-09T07:39:17.460Z,98743.64
2019-05-09T07:41:42.190Z,98752.44
2019-05-09T07:44:08.959Z,98750.24
2019-05-09T07:46:41.452Z,98756.87
2019-05-09T07:49:11.294Z,98749.75
2019-05-09T07:51:38.073Z,98752.58
2019-05-09T07:54:18.244Z,98739.62
2019-05-09T07:56:31.687Z,98739.11
2019-05-09T07:58:58.657Z,98741.52
2019-05-09T08:01:27.839Z,98732.60
2019-05-09T08:03:51.998Z,98737.45
2019-05-09T08:06:18.815Z,98725.91
2019-05-09T08:08:47.670Z,98723.11
2019-05-09T08:11:12.298Z,98725.91
2019-05-09T08:13:39.573Z,98723.59
2019-05-09T08:16:07.931Z,98722.29
2019-05-09T08:18:32.539Z,98718.67
2019-05-09T08:20:59.305Z,98711.97
2019-05-09T08:23:27.406Z,98710.41
2019-05-09T08:25:52.949Z,98698.28
2019-05-09T08:28:20.191Z,98696.36
2019-05-09T08:30:48.367Z,98692.88
2019-05-09T08:33:13.191Z,98694.99
2019-05-09T08:35:39.943Z,98694.52
2019-05-09T08:38:08.602Z,98689.67
2019-05-09T08:40:33.419Z,98692.49
2019-05-09T08:43:00.187Z,98685.89
2019-05-09T08:45:30.811Z,98678.42
2019-05-09T08:47:53.725Z,98679.20
2019-05-09T08:50:29.406Z,98683.72
2019-05-09T08:52:57.642Z,98678.48
2019-05-09T08:55:22.914Z,98683.88
2019-05-09T08:57:49.779Z,98677.50
2019-05-09T09:00:18.972Z,98670.42
2019-05-09T09:02:43.451Z,98663.60
2019-05-09T09:05:10.201Z,98666.21
2019-05-09T09:07:37.931Z,98668.56
2019-05-09T09:10:03.699Z,98668.58
2019-05-09T09:12:34.398Z,98667.66
2019-05-09T09:14:58.556Z,98666.81
2019-05-09T09:17:23.962Z,98667.55
2019-05-09T09:19:50.690Z,98665.01
2019-05-09T09:22:18.136Z,98664.30
2019-05-09T09:24:44.202Z,98661.56
2019-05-09T09:27:10.949Z,98654.67
2019-05-09T09:29:38.124Z,98656.91
2019-05-09T09:32:04.658Z,98659.36
2019-05-09T09:34:31.415Z,98654.00
2019-05-09T09:37:03.014Z,98646.16
2019-05-09T09:39:27.423Z,98643.00
2019-05-09T09:41:51.670Z,98637.17
2019-05-09T09:44:22.002Z,98627.20
2019-05-09T09:46:45.180Z,98632.20
2019-05-09T09:49:11.951Z,98628.30
2019-05-09T09:51:38.679Z,98632.05
2019-05-09T09:54:05.440Z,98636.48
2019-05-09T09:56:32.361Z,98636.14
2019-05-09T09:59:09.355Z,98632.13
2019-05-09T10:01:38.991Z,98637.81
2019-05-09T10:04:19.803Z,98643.46
2019-05-09T10:06:35.446Z,98634.74
2019-05-09T10:09:02.262Z,98631.49
2019-05-09T10:11:29.004Z,98637.08
2019-05-09T10:13:55.827Z,98642.16
2019-05-09T10:16:32.721Z,98640.95
2019-05-09T10:19:03.192Z,98640.44
2019-05-09T10:21:33.722Z,98636.60
2019-05-09T10:24:00.499Z,98640.00
2019-05-09T10:26:28.371Z,98638.90
2019-05-09T10:28:54.503Z,98637.97
2019-05-09T10:31:21.258Z,98637.89
2019-05-09T10:33:48.352Z,98634.08
2019-05-09T10:36:15.864Z,98631.09
2019-05-09T10:38:42.696Z,98630.11
2019-05-09T10:41:11.392Z,98614.55
2019-05-09T10:43:57.841Z,98603.71
2019-05-09T10:46:48.447Z,98594.55
2019-05-09T10:48:59.928Z,98592.17
2019-05-09T10:51:26.657Z,98595.76
2019-05-09T10:53:58.734Z,98598.87
2019-05-09T10:56:24.422Z,98593.75
2019-05-09T10:58:51.454Z,98595.72
2019-05-09T11:01:19.794Z,98589.55
2019-05-09T11:03:48.244Z,98594.86
2019-05-09T11:06:18.010Z,98593.31
2019-05-09T11:08:42.187Z,98584.42
2019-05-09T11:11:10.330Z,98587.56
2019-05-09T11:13:39.169Z,98574.70
2019-05-09T11:16:07.660Z,98566.74
2019-05-09T11:18:37.150Z,98562.16
2019-05-09T11:21:08.368Z,98553.06
2019-05-09T11:23:34.098Z,98555.14
2019-05-09T11:26:01.539Z,98550.50
2019-05-09T11:28:28.699Z,98550.80
2019-05-09T11:30:58.325Z,98557.88
2019-05-09T11:33:23.653Z,98550.40
2019-05-09T11:35:50.468Z,98553.51
2019-05-09T11:38:29.569Z,98553.94
2019-05-09T11:40:45.556Z,98555.84
2019-05-09T11:43:12.878Z,98557.62
2019-05-09T11:45:40.229Z,98559.09
2019-05-09T11:48:08.218Z,98552.91
2019-05-09T11:50:38.879Z,98557.34
2019-05-09T11:53:04.790Z,98560.28
2019-05-09T11:55:35.922Z,98547.12
2019-05-09T11:57:59.131Z,98547.81
2019-05-09T12:00:26.222Z,98555.55
2019-05-09T12:02:54.681Z,98553.44
2019-05-09T12:05:22.175Z,98558.52
2019-05-09T12:07:49.624Z,98559.05
2019-05-09T12:10:18.546Z,98563.98
2019-05-09T12:12:44.430Z,98563.80
2019-05-09T12:15:11.214Z,98570.42
2019-05-09T12:17:51.054Z,98577.10
2019-05-09T12:20:10.580Z,98580.44
2019-05-09T12:22:31.628Z,98584.85
2019-05-09T12:24:59.237Z,98577.91
2019-05-09T12:27:25.186Z,98582.69
2019-05-09T12:29:51.945Z,98594.22
2019-05-09T12:32:18.943Z,98587.13
2019-05-09T12:34:47.833Z,98592.47
2019-05-09T12:37:12.458Z,98591.52
2019-05-09T12:39:39.327Z,98591.62
2019-05-09T12:42:08.687Z,98594.30
2019-05-09T12:44:32.883Z,98584.45
2019-05-09T12:46:59.726Z,98601.20
2019-05-09T12:49:28.304Z,98588.73
2019-05-09T12:51:53.355Z,98592.95
2019-05-09T12:54:20.086Z,98596.69
2019-05-09T12:56:48.548Z,98595.16
2019-05-09T12:59:13.577Z,98606.89
2019-05-09T13:01:41.380Z,98611.00
2019-05-09T13:04:09.515Z,98604.11
2019-05-09T13:06:33.991Z,98607.75
2019-05-09T13:09:00.816Z,98609.56
2019-05-09T13:11:28.097Z,98619.52
2019-05-09T13:13:54.355Z,98630.16
2019-05-09T13:16:42.646Z,98623.94
2019-05-09T13:19:02.302Z,98630.59
2019-05-09T13:21:28.636Z,98643.83
2019-05-09T13:23:52.567Z,98646.84
2019-05-09T13:26:18.955Z,98639.17
2019-05-09T13:28:45.690Z,98636.68
2019-05-09T13:31:12.423Z,98646.77
2019-05-09T13:33:41.403Z,98660.34
2019-05-09T13:36:09.115Z,98667.72
2019-05-09T13:38:32.842Z,98658.23
2019-05-09T13:40:59.611Z,98668.17
2019-05-09T13:43:28.102Z,98660.69
2019-05-09T13:45:53.283Z,98665.34
2019-05-09T13:48:30.409Z,98667.78
2019-05-09T13:50:46.839Z,98675.51
2019-05-09T13:53:13.682Z,98669.52
2019-05-09T13:55:41.467Z,98681.20
2019-05-09T13:58:08.247Z,98677.50
2019-05-09T14:00:35.025Z,98681.42
2019-05-09T14:03:01.811Z,98682.62
2019-05-09T14:05:29.203Z,98690.16
2019-05-09T14:08:01.377Z,98683.36
2019-05-09T14:10:22.610Z,98690.86
2019-05-09T14:13:04.543Z,98697.27
2019-05-09T14:15:18.420Z,98702.02
2019-05-09T14:17:49.673Z,98709.62
2019-05-09T14:20:09.652Z,98709.38
2019-05-09T14:22:38.456Z,98713.14
2019-05-09T14:25:03.545Z,98715.76
2019-05-09T14:27:31.079Z,98725.50
2019-05-09T14:29:59.395Z,98728.16
2019-05-09T14:32:26.782Z,98738.78
2019-05-09T14:34:51.543Z,98734.13
2019-05-09T14:37:18.335Z,98736.75
2019-05-09T14:39:55.923Z,98743.20
2019-05-09T14:42:11.846Z,98755.66
2019-05-09T14:44:38.594Z,98746.62
2019-05-09T14:47:05.354Z,98755.66
2019-05-09T14:49:40.269Z,98766.63
2019-05-09T14:51:58.952Z,98771.63
2019-05-09T14:54:28.642Z,98773.16
2019-05-09T14:56:53.046Z,98782.09
2019-05-09T14:59:19.250Z,98783.34
2019-05-09T15:01:46.017Z,98791.38
2019-05-09T15:04:12.845Z,98791.52
2019-05-09T15:06:39.542Z,98802.16
2019-05-09T15:09:08.284Z,98802.66
2019-05-09T15:11:33.875Z,98801.58
2019-05-09T15:14:00.725Z,98814.44
2019-05-09T15:16:28.190Z,98822.48
2019-05-09T15:18:54.323Z,98821.75
2019-05-09T15:21:21.090Z,98824.16
2019-05-09T15:23:48.240Z,98833.36
2019-05-09T15:26:14.629Z,98835.83
2019-05-09T15:28:41.378Z,98839.56
2019-05-09T15:31:08.858Z,98840.50
2019-05-09T15:33:34.833Z,98838.18
2019-05-09T15:36:01.563Z,98840.89
2019-05-09T15:38:29.051Z,98852.28
2019-05-09T15:40:55.130Z,98861.77
2019-05-09T15:43:21.894Z,98861.64
2019-05-09T15:45:54.422Z,98864.06
2019-05-09T15:48:21.280Z,98868.83
2019-05-09T15:50:47.987Z,98872.63
2019-05-09T15:53:14.726Z,98872.53
2019-05-09T15:55:41.463Z,98874.73
2019-05-09T15:58:08.202Z,98875.55
2019-05-09T16:00:35.063Z,98881.08
2019-05-09T16:03:01.818Z,98888.95
2019-05-09T16:05:28.538Z,98899.34
2019-05-09T16:07:55.274Z,98902.81
2019-05-09T16:10:22.013Z,98904.97
2019-05-09T16:12:48.918Z,98914.26
2019-05-09T16:15:15.493Z,98907.39
2019-05-09T16:17:42.333Z,98909.95
2019-05-09T16:20:09.061Z,98913.30
2019-05-09T16:22:35.798Z,98922.70
2019-05-09T16:25:02.553Z,98924.05
2019-05-09T16:27:29.279Z,98925.97
2019-05-09T16:29:57.967Z,98933.10
2019-05-09T16:32:22.839Z,98934.21
2019-05-09T16:34:49.577Z,98937.81
2019-05-09T16:37:16.335Z,98937.81
2019-05-09T16:39:43.078Z,98938.33
2019-05-09T16:42:09.820Z,98940.53
2019-05-09T16:44:37.705Z,98941.64
2019-05-09T16:47:03.287Z,98952.39
2019-05-09T16:49:30.063Z,98948.17
2019-05-09T16:51:58.180Z,98960.99
2019-05-09T16:54:23.607Z,98970.28
2019-05-09T16:56:50.436Z,98978.52
2019-05-09T16:59:18.084Z,98966.48
2019-05-09T17:01:46.667Z,98975.45
2019-05-09T17:04:11.130Z,98976.88
2019-05-09T17:06:38.320Z,98973.25
2019-05-09T17:09:04.774Z,98985.41
2019-05-09T17:11:31.602Z,98988.22
2019-05-09T17:13:58.534Z,98995.81
2019-05-09T17:16:25.090Z,99000.06
2019-05-09T17:18:51.860Z,99016.91
2019-05-09T17:21:31.106Z,99020.31
2019-05-09T17:23:58.403Z,99028.97
2019-05-09T17:26:24.776Z,99040.01
2019-05-09T17:28:51.519Z,99048.34
2019-05-09T17:31:18.332Z,99051.64
2019-05-09T17:33:45.174Z,99043.01
2019-05-09T17:36:12.053Z,99046.55
2019-05-09T17:38:38.884Z,99054.02
2019-05-09T17:41:08.040Z,99058.55
2019-05-09T17:43:32.369Z,99058.73
2019-05-09T17:45:59.190Z,99051.77
2019-05-09T17:48:28.987Z,99054.00
2019-05-09T17:50:57.858Z,99054.44
2019-05-09T17:53:22.566Z,99064.12
2019-05-09T17:55:49.330Z,99069.18
2019-05-09T17:58:29.134Z,99076.86
2019-05-09T18:00:42.856Z,99073.90
2019-05-09T18:03:09.695Z,99083.23
2019-05-09T18:05:38.844Z,99079.92
2019-05-09T18:08:04.143Z,99084.48
2019-05-09T18:10:31.052Z,99081.45
2019-05-09T18:12:58.810Z,99078.39
2019-05-09T18:15:28.099Z,99074.46
2019-05-09T18:17:52.263Z,99080.05
2019-05-09T18:20:19.074Z,99075.12
2019-05-09T18:22:47.762Z,99078.92
2019-05-09T18:25:12.574Z,99081.19
2019-05-09T18:27:39.302Z,99083.95
2019-05-09T18:30:06.171Z,99089.67
2019-05-09T18:32:40.930Z,99094.87
2019-05-09T18:35:12.166Z,99097.30
2019-05-09T18:37:38.898Z,99098.72
2019-05-09T18:40:05.643Z,99104.32
2019-05-09T18:42:32.365Z,99104.52
2019-05-09T18:44:59.660Z,99109.42
2019-05-09T18:47:27.838Z,99108.78
2019-05-09T18:49:52.598Z,99111.31
2019-05-09T18:52:19.376Z,99119.94
2019-05-09T18:54:46.152Z,99133.05
2019-05-09T18:57:12.901Z,99132.80
2019-05-09T18:59:39.635Z,99139.63
2019-05-09T19:02:06.360Z,99143.26
2019-05-09T19:04:33.198Z,99148.16
2019-05-09T19:06:59.959Z,99146.55
2019-05-09T19:09:26.684Z,99162.56
2019-05-09T19:11:53.488Z,99164.77
2019-05-09T19:14:20.153Z,99173.18
2019-05-09T19:17:03.432Z,99178.58
2019-05-09T19:19:35.407Z,99179.77
2019-05-09T19:22:04.978Z,99191.80
2019-05-09T19:24:29.528Z,99193.86
2019-05-09T19:26:56.286Z,99202.05
2019-05-09T19:29:23.019Z,99196.89
2019-05-09T19:31:49.771Z,99199.80
2019-05-09T19:34:16.506Z,99199.00
2019-05-09T19:36:43.375Z,99208.69
2019-05-09T19:39:10.122Z,99214.22
2019-05-09T19:41:36.889Z,99212.92
2019-05-09T19:44:03.629Z,99219.92
2019-05-09T19:46:30.359Z,99229.31
2019-05-09T19:48:57.091Z,99228.73
2019-05-09T19:51:23.830Z,99242.22
2019-05-09T19:53:50.843Z,99241.27
2019-05-09T19:56:17.584Z,99242.64
2019-05-09T19:58:44.310Z,99239.23
2019-05-09T20:01:11.055Z,99243.63
2019-05-09T20:03:37.814Z,99257.14
2019-05-09T20:06:04.563Z,99257.36
2019-05-09T20:08:34.178Z,99254.56
2019-05-09T20:11:05.679Z,99251.70
2019-05-09T20:13:38.441Z,99246.08
2019-05-09T20:16:05.178Z,99254.86
2019-05-09T20:18:31.979Z,99266.79
2019-05-09T20:20:58.726Z,99267.78
2019-05-09T20:23:25.421Z,99271.38
2019-05-09T20:25:52.145Z,99272.37
2019-05-09T20:28:18.902Z,99278.25
2019-05-09T20:30:45.779Z,99284.77
2019-05-09T20:33:12.540Z,99287.06
2019-05-09T20:35:39.262Z,99287.44
2019-05-09T20:38:05.995Z,99297.05
2019-05-09T20:40:32.911Z,99289.09
2019-05-09T20:42:59.682Z,99293.86
2019-05-09T20:45:26.401Z,99302.19
2019-05-09T20:47:53.158Z,99306.09
2019-05-09T20:50:19.899Z,99300.58
2019-05-09T20:52:46.642Z,99304.66
2019-05-09T20:55:13.365Z,99305.58
2019-05-09T20:57:40.123Z,99312.47
2019-05-09T21:00:06.934Z,99319.14
2019-05-09T21:02:33.679Z,99314.70
2019-05-09T21:05:00.411Z,99312.95
2019-05-09T21:07:27.165Z,99323.51
2019-05-09T21:09:53.892Z,99327.59
2019-05-09T21:12:20.668Z,99330.69
2019-05-09T21:14:47.386Z,99340.63
2019-05-09T21:17:14.129Z,99347.78
2019-05-09T21:19:40.854Z,99347.64
2019-05-09T21:22:07.603Z,99346.34
2019-05-09T21:24:34.346Z,99350.15
2019-05-09T21:27:01.082Z,99346.70
2019-05-09T21:29:27.826Z,99347.55
2019-05-09T21:31:54.570Z,99352.80
2019-05-09T21:34:21.303Z,99354.77
2019-05-09T21:36:48.086Z,99355.47
2019-05-09T21:39:14.803Z,99364.55
2019-05-09T21:41:41.534Z,99366.52
2019-05-09T21:44:08.254Z,99365.89
2019-05-09T21:46:34.995Z,99369.83
2019-05-09T21:49:01.745Z,99376.45
2019-05-09T21:51:28.474Z,99380.84
2019-05-09T21:53:55.219Z,99378.38
2019-05-09T21:56:21.946Z,99381.48
2019-05-09T21:58:48.700Z,99382.81
2019-05-09T22:01:15.424Z,99385.06
2019-05-09T22:03:42.150Z,99383.30
2019-05-09T22:06:08.873Z,99389.64
2019-05-09T22:08:35.611Z,99384.78
2019-05-09T22:11:02.339Z,99397.10
2019-05-09T22:13:29.074Z,99399.42
2019-05-09T22:15:55.927Z,99391.29
2019-05-09T22:18:22.662Z,99393.58
2019-05-09T22:20:49.400Z,99394.81
2019-05-09T22:23:16.142Z,99397.42
2019-05-09T22:25:42.893Z,99394.18
2019-05-09T22:28:09.633Z,99401.81
2019-05-09T22:30:36.371Z,99400.89
2019-05-09T22:33:03.111Z,99405.64
2019-05-09T22:35:29.899Z,99415.59
2019-05-09T22:37:56.625Z,99421.09
2019-05-09T22:40:23.346Z,99416.40
2019-05-09T22:42:50.087Z,99416.05
2019-05-09T22:45:16.794Z,99412.81
2019-05-09T22:47:43.539Z,99409.52
2019-05-09T22:50:10.278Z,99410.30
2019-05-09T22:52:37.087Z,99420.30
2019-05-09T22:55:03.836Z,99425.24
2019-05-09T22:57:30.592Z,99426.39
2019-05-09T22:59:57.318Z,99428.52
2019-05-09T23:02:24.067Z,99433.39
2019-05-09T23:04:50.798Z,99436.91
2019-05-09T23:07:17.617Z,99428.41
2019-05-09T23:09:44.370Z,99437.23
2019-05-09T23:12:11.098Z,99438.77
2019-05-09T23:14:37.839Z,99443.34
2019-05-09T23:17:04.722Z,99437.17
2019-05-09T23:19:31.458Z,99440.30
2019-05-09T23:21:58.179Z,99447.53
2019-05-09T23:24:28.510Z,99446.66
2019-05-09T23:26:52.369Z,99441.05
2019-05-09T23:29:21.706Z,99443.66
2019-05-09T23:31:56.143Z,99439.55
2019-05-09T23:34:22.894Z,99437.17
2019-05-09T23:36:49.614Z,99437.00
2019-05-09T23:39:19.574Z,99453.80
2019-05-09T23:41:46.326Z,99451.77
2019-05-09T23:44:13.070Z,99456.31
2019-05-09T23:46:39.781Z,99455.82
2019-05-09T23:49:06.518Z,99454.02
2019-05-09T23:51:39.194Z,99454.34
2019-05-09T23:54:05.545Z,99454.84
2019-05-09T23:56:38.022Z,99452.58
2019-05-09T23:59:10.667Z,99457.78
